createdAt,value
2023-05-09T00:00:49.696Z,100908.50
2023-05-09T00:03:16.061Z,100908.50
2023-05-09T00:05:42.443Z,100903.66
2023-05-09T00:08:09.043Z,100905.94
2023-05-09T00:10:35.363Z,100906.38
2023-05-09T00:13:01.797Z,100902.16
2023-05-09T00:15:28.291Z,100906.19
2023-05-09T00:17:54.735Z,100909.53
2023-05-09T00:20:21.688Z,100897.91
2023-05-09T00:22:48.064Z,100903.38
2023-05-09T00:25:14.598Z,100900.03
2023-05-09T00:27:41.160Z,100900.50
2023-05-09T00:30:08.183Z,100898.31
2023-05-09T00:32:34.666Z,100900.31
2023-05-09T00:35:01.016Z,100894.06
2023-05-09T00:37:29.074Z,100885.38
2023-05-09T00:39:55.383Z,100894.97
2023-05-09T00:42:21.689Z,100882.16
2023-05-09T00:44:48.014Z,100872.66
2023-05-09T00:47:14.406Z,100877.13
2023-05-09T00:49:40.730Z,100870.44
2023-05-09T00:52:07.038Z,100863.34
2023-05-09T00:54:33.403Z,100863.56
2023-05-09T00:56:59.732Z,100850.84
2023-05-09T00:59:27.760Z,100854.47
2023-05-09T01:01:54.116Z,100850.72
2023-05-09T01:04:20.531Z,100836.22
2023-05-09T01:07:30.153Z,100838.16
2023-05-09T01:10:07.709Z,100835.78
2023-05-09T01:12:58.772Z,100845.09
2023-05-09T01:15:50.455Z,100834.50
2023-05-09T01:18:30.192Z,100829.53
2023-05-09T01:21:08.398Z,100834.09
2023-05-09T01:24:13.521Z,100824.00
2023-05-09T01:26:55.972Z,100823.69
2023-05-09T01:29:45.468Z,100818.56
2023-05-09T01:32:17.274Z,100815.31
2023-05-09T01:34:45.492Z,100817.16
2023-05-09T01:37:14.785Z,100813.91
2023-05-09T01:39:44.780Z,100809.47
2023-05-09T01:42:12.903Z,100800.78
2023-05-09T01:44:41.164Z,100795.25
2023-05-09T01:47:08.533Z,100796.28
2023-05-09T01:49:40.192Z,100802.09
2023-05-09T01:52:09.977Z,100800.81
2023-05-09T01:54:37.774Z,100801.41
2023-05-09T01:57:06.259Z,100794.75
2023-05-09T01:59:33.887Z,100793.53
2023-05-09T02:02:02.692Z,100795.72
2023-05-09T02:04:30.872Z,100804.66
2023-05-09T02:06:58.965Z,100809.00
2023-05-09T02:09:25.837Z,100799.22
2023-05-09T02:11:52.243Z,100789.31
2023-05-09T02:14:18.542Z,100785.59
2023-05-09T02:16:44.925Z,100785.13
2023-05-09T02:19:11.396Z,100778.84
2023-05-09T02:21:37.874Z,100785.00
2023-05-09T02:24:04.583Z,100782.16
2023-05-09T02:26:31.378Z,100777.31
2023-05-09T02:28:58.829Z,100775.91
2023-05-09T02:31:27.357Z,100773.28
2023-05-09T02:33:54.714Z,100770.84
2023-05-09T02:36:22.575Z,100763.63
2023-05-09T02:38:49.028Z,100764.59
2023-05-09T02:41:16.084Z,100757.09
2023-05-09T02:43:42.936Z,100757.03
2023-05-09T02:46:10.386Z,100752.69
2023-05-09T02:48:36.895Z,100750.91
2023-05-09T02:51:03.389Z,100750.75
2023-05-09T02:53:29.758Z,100755.25
2023-05-09T02:55:56.068Z,100754.06
2023-05-09T02:58:22.380Z,100754.66
2023-05-09T03:00:48.712Z,100752.81
2023-05-09T03:03:15.191Z,100755.28
2023-05-09T03:05:41.565Z,100763.16
2023-05-09T03:08:07.912Z,100753.66
2023-05-09T03:10:34.531Z,100757.72
2023-05-09T03:13:01.271Z,100759.41
2023-05-09T03:15:27.678Z,100750.94
2023-05-09T03:17:54.081Z,100752.88
2023-05-09T03:20:20.487Z,100751.16
2023-05-09T03:22:46.807Z,100759.91
2023-05-09T03:25:13.410Z,100747.59
2023-05-09T03:27:39.901Z,100742.66
2023-05-09T03:30:06.953Z,100747.63
2023-05-09T03:32:33.396Z,100746.31
2023-05-09T03:34:59.713Z,100745.66
2023-05-09T03:37:27.224Z,100739.75
2023-05-09T03:39:53.749Z,100734.31
2023-05-09T03:42:20.045Z,100738.34
2023-05-09T03:44:46.370Z,100729.38
2023-05-09T03:47:12.694Z,100735.94
2023-05-09T03:49:39.008Z,100734.69
2023-05-09T03:52:05.505Z,100732.91
2023-05-09T03:54:31.792Z,100724.25
2023-05-09T03:56:58.093Z,100725.69
2023-05-09T03:59:24.422Z,100726.25
2023-05-09T04:01:50.854Z,100723.84
2023-05-09T04:04:17.249Z,100719.22
2023-05-09T04:06:43.564Z,100728.66
2023-05-09T04:09:09.935Z,100722.19
2023-05-09T04:11:36.264Z,100725.72
2023-05-09T04:14:02.604Z,100721.72
2023-05-09T04:16:30.125Z,100727.56
2023-05-09T04:18:56.452Z,100731.19
2023-05-09T04:21:22.775Z,100724.44
2023-05-09T04:23:49.083Z,100722.94
2023-05-09T04:26:15.403Z,100710.50
2023-05-09T04:28:41.692Z,100718.59
2023-05-09T04:31:08.096Z,100716.97
2023-05-09T04:33:34.542Z,100719.09
2023-05-09T04:36:00.907Z,100712.06
2023-05-09T04:38:27.698Z,100714.00
2023-05-09T04:40:54.056Z,100706.09
2023-05-09T04:43:20.372Z,100701.59
2023-05-09T04:45:46.803Z,100704.94
2023-05-09T04:48:13.124Z,100698.81
2023-05-09T04:50:40.953Z,100693.13
2023-05-09T04:53:07.272Z,100697.59
2023-05-09T04:55:33.607Z,100693.75
2023-05-09T04:57:59.949Z,100701.69
2023-05-09T05:00:26.248Z,100704.53
2023-05-09T05:02:52.583Z,100701.22
2023-05-09T05:05:24.528Z,100700.94
2023-05-09T05:07:51.895Z,100696.16
2023-05-09T05:10:18.240Z,100693.00
2023-05-09T05:12:44.567Z,100687.38
2023-05-09T05:15:11.576Z,100692.53
2023-05-09T05:17:37.998Z,100684.97
2023-05-09T05:20:04.827Z,100692.44
2023-05-09T05:22:32.761Z,100682.25
2023-05-09T05:24:59.213Z,100689.69
2023-05-09T05:27:25.524Z,100674.72
2023-05-09T05:29:51.828Z,100685.03
2023-05-09T05:32:18.226Z,100681.22
2023-05-09T05:34:44.532Z,100683.78
2023-05-09T05:37:10.871Z,100684.16
2023-05-09T05:39:37.162Z,100683.22
2023-05-09T05:42:03.515Z,100677.19
2023-05-09T05:44:29.840Z,100678.34
2023-05-09T05:46:56.263Z,100676.25
2023-05-09T05:49:22.587Z,100672.28
2023-05-09T05:51:48.898Z,100672.44
2023-05-09T05:54:15.193Z,100663.00
2023-05-09T05:56:41.527Z,100665.38
2023-05-09T05:59:07.950Z,100647.31
2023-05-09T06:01:34.340Z,100649.78
2023-05-09T06:04:00.686Z,100643.06
2023-05-09T06:06:27.364Z,100641.13
2023-05-09T06:08:53.753Z,100639.72
2023-05-09T06:11:20.082Z,100637.88
2023-05-09T06:13:46.399Z,100627.00
2023-05-09T06:16:19.640Z,100625.69
2023-05-09T06:18:47.455Z,100637.19
2023-05-09T06:21:13.810Z,100634.50
2023-05-09T06:23:47.265Z,100630.97
2023-05-09T06:26:23.774Z,100628.56
2023-05-09T06:28:50.151Z,100625.88
2023-05-09T06:31:16.559Z,100621.47
2023-05-09T06:33:42.924Z,100620.00
2023-05-09T06:36:09.406Z,100610.50
2023-05-09T06:38:35.701Z,100614.06
2023-05-09T06:41:02.017Z,100611.03
2023-05-09T06:43:28.347Z,100614.06
2023-05-09T06:45:54.753Z,100609.19
2023-05-09T06:48:21.083Z,100603.84
2023-05-09T06:50:47.693Z,100604.78
2023-05-09T06:53:14.112Z,100601.34
2023-05-09T06:55:40.461Z,100594.91
2023-05-09T06:58:06.760Z,100598.97
2023-05-09T07:00:33.098Z,100599.06
2023-05-09T07:02:59.425Z,100593.56
2023-05-09T07:05:25.932Z,100580.72
2023-05-09T07:07:52.519Z,100586.81
2023-05-09T07:10:18.895Z,100577.69
2023-05-09T07:12:45.194Z,100577.94
2023-05-09T07:15:11.691Z,100570.03
2023-05-09T07:17:38.042Z,100575.69
2023-05-09T07:20:04.916Z,100565.78
2023-05-09T07:22:32.676Z,100567.88
2023-05-09T07:24:59.972Z,100561.16
2023-05-09T07:27:26.335Z,100554.72
2023-05-09T07:29:52.698Z,100550.59
2023-05-09T07:32:19.559Z,100543.88
2023-05-09T07:34:45.880Z,100550.97
2023-05-09T07:37:13.664Z,100547.97
2023-05-09T07:39:41.717Z,100537.44
2023-05-09T07:42:08.058Z,100533.22
2023-05-09T07:44:34.770Z,100532.03
2023-05-09T07:47:01.232Z,100522.88
2023-05-09T07:49:27.540Z,100530.13
2023-05-09T07:51:53.849Z,100519.63
2023-05-09T07:54:20.179Z,100516.41
2023-05-09T07:56:46.495Z,100515.72
2023-05-09T07:59:12.825Z,100515.97
2023-05-09T08:01:39.228Z,100512.59
2023-05-09T08:04:05.654Z,100510.81
2023-05-09T08:06:32.705Z,100506.06
2023-05-09T08:08:59.005Z,100500.22
2023-05-09T08:11:25.334Z,100495.38
2023-05-09T08:13:51.976Z,100490.63
2023-05-09T08:16:18.277Z,100489.22
2023-05-09T08:18:44.994Z,100489.84
2023-05-09T08:21:11.705Z,100484.47
2023-05-09T08:23:38.026Z,100488.41
2023-05-09T08:26:04.376Z,100481.41
2023-05-09T08:28:30.669Z,100471.28
2023-05-09T08:30:57.092Z,100473.75
2023-05-09T08:33:23.991Z,100469.13
2023-05-09T08:35:51.583Z,100469.69
2023-05-09T08:38:17.889Z,100467.38
2023-05-09T08:40:44.245Z,100465.34
2023-05-09T08:43:11.793Z,100454.03
2023-05-09T08:45:51.723Z,100454.28
2023-05-09T08:48:19.107Z,100459.31
2023-05-09T08:50:45.515Z,100450.22
2023-05-09T08:53:12.008Z,100451.91
2023-05-09T08:55:38.749Z,100455.81
2023-05-09T08:58:05.680Z,100449.66
2023-05-09T09:00:33.554Z,100440.22
2023-05-09T09:03:01.850Z,100445.84
2023-05-09T09:08:01.698Z,100438.69
2023-05-09T09:10:31.710Z,100436.38
2023-05-09T09:12:59.520Z,100430.63
2023-05-09T09:15:29.724Z,100437.84
2023-05-09T09:18:01.087Z,100431.53
2023-05-09T09:20:31.299Z,100429.72
2023-05-09T09:22:59.867Z,100428.44
2023-05-09T09:25:26.251Z,100430.81
2023-05-09T09:27:52.557Z,100420.22
2023-05-09T09:30:19.050Z,100419.75
2023-05-09T09:32:45.395Z,100416.13
2023-05-09T09:35:12.106Z,100403.69
2023-05-09T09:37:40.565Z,100402.09
2023-05-09T09:40:08.738Z,100397.00
2023-05-09T09:42:48.490Z,100397.22
2023-05-09T09:45:19.769Z,100405.34
2023-05-09T09:47:48.320Z,100393.50
2023-05-09T09:50:17.151Z,100391.13
2023-05-09T09:52:54.659Z,100388.88
2023-05-09T09:55:22.742Z,100389.31
2023-05-09T09:57:49.037Z,100378.56
2023-05-09T10:00:17.648Z,100382.06
2023-05-09T10:03:02.418Z,100374.69
2023-05-09T10:05:30.571Z,100369.13
2023-05-09T10:07:58.941Z,100369.91
2023-05-09T10:10:27.795Z,100370.47
2023-05-09T10:12:58.968Z,100370.91
2023-05-09T10:15:30.041Z,100368.13
2023-05-09T10:18:00.904Z,100358.16
2023-05-09T10:20:28.496Z,100363.53
2023-05-09T10:22:58.687Z,100353.03
2023-05-09T10:25:46.762Z,100334.34
2023-05-09T10:28:22.450Z,100337.88
2023-05-09T10:31:14.757Z,100334.13
2023-05-09T10:33:48.919Z,100329.91
2023-05-09T10:36:17.733Z,100320.28
2023-05-09T10:38:44.988Z,100323.06
2023-05-09T10:41:11.645Z,100324.94
2023-05-09T10:43:38.167Z,100310.47
2023-05-09T10:46:05.384Z,100303.97
2023-05-09T10:48:33.174Z,100306.31
2023-05-09T10:51:03.959Z,100301.69
2023-05-09T10:53:49.910Z,100296.59
2023-05-09T10:56:33.681Z,100293.97
2023-05-09T10:59:00.417Z,100295.66
2023-05-09T11:01:38.082Z,100290.22
2023-05-09T11:04:16.409Z,100272.84
2023-05-09T11:06:42.695Z,100275.97
2023-05-09T11:09:28.635Z,100277.56
2023-05-09T11:12:05.472Z,100277.00
2023-05-09T11:14:37.529Z,100277.50
2023-05-09T11:17:11.928Z,100256.66
2023-05-09T11:19:47.302Z,100258.72
2023-05-09T11:22:18.651Z,100251.19
2023-05-09T11:24:46.049Z,100245.41
2023-05-09T11:27:23.127Z,100239.38
2023-05-09T11:29:57.473Z,100244.97
2023-05-09T11:32:40.761Z,100244.19
2023-05-09T11:35:09.104Z,100237.41
2023-05-09T11:38:04.832Z,100240.63
2023-05-09T11:40:32.269Z,100220.59
2023-05-09T11:42:59.866Z,100224.09
2023-05-09T11:45:28.933Z,100221.06
2023-05-09T11:47:55.562Z,100221.84
2023-05-09T11:50:21.884Z,100209.84
2023-05-09T11:52:49.643Z,100203.91
2023-05-09T11:55:18.340Z,100207.16
2023-05-09T11:57:47.215Z,100199.75
2023-05-09T12:00:23.187Z,100200.50
2023-05-09T12:02:50.269Z,100192.69
2023-05-09T12:05:18.258Z,100192.66
2023-05-09T12:07:45.464Z,100188.03
2023-05-09T12:10:14.373Z,100176.16
2023-05-09T12:12:49.317Z,100178.50
2023-05-09T12:15:17.024Z,100171.38
2023-05-09T12:17:45.027Z,100168.16
2023-05-09T12:20:11.868Z,100166.59
2023-05-09T12:22:38.683Z,100157.06
2023-05-09T12:25:09.683Z,100159.44
2023-05-09T12:27:37.770Z,100149.06
2023-05-09T12:30:08.351Z,100152.00
2023-05-09T12:32:35.476Z,100149.88
2023-05-09T12:35:02.206Z,100144.41
2023-05-09T12:37:31.073Z,100145.63
2023-05-09T12:40:10.040Z,100141.03
2023-05-09T12:42:36.533Z,100127.53
2023-05-09T12:45:03.637Z,100133.34
2023-05-09T12:47:31.144Z,100136.41
2023-05-09T12:49:59.019Z,100129.38
2023-05-09T12:52:25.989Z,100127.53
2023-05-09T12:54:53.494Z,100118.09
2023-05-09T12:57:25.133Z,100123.75
2023-05-09T12:59:51.471Z,100110.56
2023-05-09T13:02:17.820Z,100108.53
2023-05-09T13:04:44.177Z,100111.66
2023-05-09T13:07:10.743Z,100120.97
2023-05-09T13:09:54.875Z,100111.56
2023-05-09T13:12:21.224Z,100103.47
2023-05-09T13:14:47.608Z,100100.81
2023-05-09T13:17:14.016Z,100098.84
2023-05-09T13:19:40.348Z,100094.91
2023-05-09T13:22:06.690Z,100086.22
2023-05-09T13:24:33.016Z,100075.53
2023-05-09T13:26:59.343Z,100077.88
2023-05-09T13:29:25.697Z,100075.81
2023-05-09T13:31:52.005Z,100072.97
2023-05-09T13:34:18.344Z,100071.34
2023-05-09T13:36:44.652Z,100061.47
2023-05-09T13:39:10.974Z,100056.66
2023-05-09T13:41:38.191Z,100054.72
2023-05-09T13:44:04.760Z,100054.94
2023-05-09T13:46:31.130Z,100052.63
2023-05-09T13:48:57.440Z,100045.16
2023-05-09T13:51:23.749Z,100034.16
2023-05-09T13:53:50.045Z,100033.47
2023-05-09T13:56:16.386Z,100028.78
2023-05-09T13:58:42.686Z,100031.16
2023-05-09T14:01:09.121Z,100027.19
2023-05-09T14:03:35.499Z,100029.16
2023-05-09T14:06:01.939Z,100021.28
2023-05-09T14:08:28.256Z,100017.69
2023-05-09T14:10:54.571Z,100011.28
2023-05-09T14:13:20.936Z,100004.91
2023-05-09T14:15:47.413Z,100004.16
2023-05-09T14:18:17.731Z,100008.97
2023-05-09T14:20:45.602Z,100000.19
2023-05-09T14:23:11.912Z,99989.13
2023-05-09T14:25:38.196Z,99995.06
2023-05-09T14:28:04.880Z,99996.25
2023-05-09T14:30:31.204Z,99984.47
2023-05-09T14:32:57.551Z,99991.56
2023-05-09T14:35:23.964Z,99980.47
2023-05-09T14:37:50.323Z,99978.09
2023-05-09T14:40:16.904Z,99982.09
2023-05-09T14:42:43.415Z,99968.16
2023-05-09T14:45:09.964Z,99967.75
2023-05-09T14:47:36.265Z,99962.97
2023-05-09T14:50:02.686Z,99962.97
2023-05-09T14:52:28.979Z,99962.94
2023-05-09T14:54:55.570Z,99966.44
2023-05-09T14:57:21.881Z,99960.94
2023-05-09T14:59:48.176Z,99957.72
2023-05-09T15:02:14.487Z,99950.47
2023-05-09T15:04:40.817Z,99951.28
2023-05-09T15:07:07.110Z,99954.03
2023-05-09T15:09:33.438Z,99954.16
2023-05-09T15:11:59.761Z,99957.03
2023-05-09T15:14:26.112Z,99953.41
2023-05-09T15:16:52.504Z,99953.44
2023-05-09T15:19:19.153Z,99945.00
2023-05-09T15:21:45.560Z,99954.81
2023-05-09T15:24:11.854Z,99940.53
2023-05-09T15:26:38.308Z,99933.44
2023-05-09T15:29:04.597Z,99936.63
2023-05-09T15:31:32.792Z,99930.31
2023-05-09T15:33:59.663Z,99929.53
2023-05-09T15:36:27.854Z,99924.34
2023-05-09T15:38:54.131Z,99918.31
2023-05-09T15:41:20.466Z,99918.25
2023-05-09T15:43:46.760Z,99920.91
2023-05-09T15:46:13.118Z,99916.97
2023-05-09T15:48:39.422Z,99918.09
2023-05-09T15:51:05.832Z,99912.22
2023-05-09T15:53:32.140Z,99905.59
2023-05-09T15:55:58.453Z,99904.84
2023-05-09T15:58:24.944Z,99907.22
2023-05-09T16:00:51.378Z,99894.50
2023-05-09T16:03:18.335Z,99900.03
2023-05-09T16:05:44.937Z,99897.69
2023-05-09T16:08:11.244Z,99893.81
2023-05-09T16:10:37.640Z,99889.78
2023-05-09T16:13:04.000Z,99881.84
2023-05-09T16:15:30.419Z,99879.38
2023-05-09T16:17:56.745Z,99881.47
2023-05-09T16:20:23.168Z,99876.59
2023-05-09T16:22:49.491Z,99882.84
2023-05-09T16:25:16.527Z,99877.31
2023-05-09T16:27:42.893Z,99875.94
2023-05-09T16:30:09.691Z,99867.72
2023-05-09T16:32:36.006Z,99867.22
2023-05-09T16:35:02.307Z,99867.50
2023-05-09T16:37:28.611Z,99863.59
2023-05-09T16:39:55.143Z,99858.34
2023-05-09T16:42:21.462Z,99860.81
2023-05-09T16:44:47.945Z,99869.16
2023-05-09T16:47:14.322Z,99860.75
2023-05-09T16:49:40.617Z,99862.66
2023-05-09T16:52:06.984Z,99854.72
2023-05-09T16:54:33.276Z,99852.19
2023-05-09T16:56:59.594Z,99854.66
2023-05-09T16:59:25.949Z,99857.59
2023-05-09T17:01:52.248Z,99851.63
2023-05-09T17:04:18.561Z,99850.81
2023-05-09T17:06:44.958Z,99856.16
2023-05-09T17:09:11.255Z,99854.88
2023-05-09T17:11:37.542Z,99855.81
2023-05-09T17:14:03.848Z,99857.19
2023-05-09T17:16:30.195Z,99858.59
2023-05-09T17:18:56.518Z,99850.66
2023-05-09T17:21:22.809Z,99854.22
2023-05-09T17:23:49.198Z,99850.66
2023-05-09T17:26:15.500Z,99846.97
2023-05-09T17:28:41.828Z,99843.91
2023-05-09T17:31:08.125Z,99842.75
2023-05-09T17:33:34.480Z,99839.00
2023-05-09T17:36:00.857Z,99837.44
2023-05-09T17:38:27.163Z,99840.63
2023-05-09T17:40:53.485Z,99830.00
2023-05-09T17:43:19.804Z,99829.38
2023-05-09T17:45:46.157Z,99838.03
2023-05-09T17:48:12.474Z,99839.09
2023-05-09T17:50:38.822Z,99840.78
2023-05-09T17:53:05.129Z,99835.00
2023-05-09T17:55:31.431Z,99840.25
2023-05-09T17:57:57.726Z,99848.19
2023-05-09T18:00:24.089Z,99832.38
2023-05-09T18:02:50.444Z,99838.28
2023-05-09T18:05:16.850Z,99845.97
2023-05-09T18:07:43.139Z,99847.75
2023-05-09T18:10:09.961Z,99843.38
2023-05-09T18:12:37.173Z,99839.97
2023-05-09T18:15:04.144Z,99845.97
2023-05-09T18:17:30.462Z,99845.06
2023-05-09T18:19:56.807Z,99836.31
2023-05-09T18:22:23.135Z,99842.47
2023-05-09T18:24:49.538Z,99840.19
2023-05-09T18:27:16.518Z,99841.44
2023-05-09T18:29:42.799Z,99838.09
2023-05-09T18:32:09.103Z,99837.28
2023-05-09T18:34:35.404Z,99837.50
2023-05-09T18:37:01.697Z,99840.13
2023-05-09T18:39:27.994Z,99838.34
2023-05-09T18:41:54.337Z,99836.78
2023-05-09T18:44:20.639Z,99839.72
2023-05-09T18:46:47.025Z,99839.63
2023-05-09T18:49:13.355Z,99836.84
2023-05-09T18:51:39.706Z,99838.69
2023-05-09T18:54:06.025Z,99846.13
2023-05-09T18:56:32.379Z,99849.59
2023-05-09T18:58:58.658Z,99843.78
2023-05-09T19:01:25.050Z,99842.16
2023-05-09T19:03:51.642Z,99839.75
2023-05-09T19:06:17.959Z,99834.53
2023-05-09T19:08:44.336Z,99840.75
2023-05-09T19:11:10.653Z,99841.94
2023-05-09T19:13:38.118Z,99847.16
2023-05-09T19:16:05.532Z,99857.63
2023-05-09T19:18:31.876Z,99853.91
2023-05-09T19:20:58.810Z,99860.19
2023-05-09T19:23:25.935Z,99859.22
2023-05-09T19:25:52.960Z,99867.97
2023-05-09T19:28:20.282Z,99868.59
2023-05-09T19:30:46.733Z,99868.31
2023-05-09T19:33:13.065Z,99869.19
2023-05-09T19:35:41.265Z,99869.56
2023-05-09T19:38:07.733Z,99874.97
2023-05-09T19:40:34.372Z,99875.84
2023-05-09T19:43:00.661Z,99875.69
2023-05-09T19:45:26.973Z,99887.50
2023-05-09T19:47:53.320Z,99890.09
2023-05-09T19:50:19.764Z,99881.13
2023-05-09T19:52:46.273Z,99880.00
2023-05-09T19:55:12.784Z,99882.38
2023-05-09T19:57:39.623Z,99881.56
2023-05-09T20:00:08.525Z,99876.88
2023-05-09T20:02:34.967Z,99876.41
2023-05-09T20:05:01.339Z,99874.84
2023-05-09T20:07:27.795Z,99870.06
2023-05-09T20:09:54.112Z,99867.75
2023-05-09T20:12:20.415Z,99867.66
2023-05-09T20:14:46.736Z,99873.84
2023-05-09T20:17:13.032Z,99867.38
2023-05-09T20:19:39.410Z,99871.06
2023-05-09T20:22:05.727Z,99865.94
2023-05-09T20:24:32.064Z,99867.28
2023-05-09T20:26:58.473Z,99863.16
2023-05-09T20:29:25.407Z,99865.72
2023-05-09T20:31:51.775Z,99868.13
2023-05-09T20:34:18.110Z,99866.19
2023-05-09T20:36:47.307Z,99858.16
2023-05-09T20:39:13.612Z,99863.31
2023-05-09T20:41:39.926Z,99859.50
2023-05-09T20:44:06.238Z,99864.97
2023-05-09T20:46:32.706Z,99855.81
2023-05-09T20:48:59.004Z,99862.50
2023-05-09T20:51:25.368Z,99854.56
2023-05-09T20:53:51.681Z,99850.69
2023-05-09T20:56:18.000Z,99848.00
2023-05-09T20:58:44.318Z,99846.88
2023-05-09T21:01:10.659Z,99845.00
2023-05-09T21:03:37.003Z,99831.00
2023-05-09T21:06:03.542Z,99832.53
2023-05-09T21:08:29.867Z,99843.44
2023-05-09T21:10:56.178Z,99838.09
2023-05-09T21:13:22.701Z,99834.44
2023-05-09T21:15:49.711Z,99819.63
2023-05-09T21:18:16.486Z,99816.88
2023-05-09T21:20:42.797Z,99822.94
2023-05-09T21:23:09.120Z,99813.38
2023-05-09T21:25:35.421Z,99817.00
2023-05-09T21:28:01.762Z,99814.75
2023-05-09T21:30:28.116Z,99812.91
2023-05-09T21:32:54.490Z,99817.13
2023-05-09T21:35:20.905Z,99804.84
2023-05-09T21:37:47.202Z,99796.31
2023-05-09T21:40:13.876Z,99802.91
2023-05-09T21:42:40.410Z,99807.44
2023-05-09T21:45:09.503Z,99803.56
2023-05-09T21:47:36.593Z,99804.84
2023-05-09T21:50:03.133Z,99816.34
2023-05-09T21:52:29.933Z,99806.00
2023-05-09T21:54:56.238Z,99799.94
2023-05-09T21:57:22.560Z,99802.22
2023-05-09T21:59:48.857Z,99801.31
2023-05-09T22:02:15.353Z,99798.13
2023-05-09T22:04:41.723Z,99803.59
2023-05-09T22:07:08.050Z,99794.25
2023-05-09T22:09:34.717Z,99798.34
2023-05-09T22:12:01.077Z,99790.59
2023-05-09T22:14:27.384Z,99794.59
2023-05-09T22:16:53.684Z,99797.34
2023-05-09T22:19:20.037Z,99794.69
2023-05-09T22:21:46.424Z,99791.13
2023-05-09T22:24:12.752Z,99783.38
2023-05-09T22:26:39.062Z,99789.25
2023-05-09T22:29:05.379Z,99788.19
2023-05-09T22:31:31.734Z,99783.31
2023-05-09T22:33:58.050Z,99778.09
2023-05-09T22:36:24.828Z,99776.13
2023-05-09T22:38:51.132Z,99783.19
2023-05-09T22:41:17.452Z,99781.38
2023-05-09T22:43:43.752Z,99784.34
2023-05-09T22:46:10.112Z,99781.03
2023-05-09T22:48:36.448Z,99774.53
2023-05-09T22:51:02.826Z,99770.53
2023-05-09T22:53:29.134Z,99768.28
2023-05-09T22:55:55.438Z,99770.41
2023-05-09T22:58:21.822Z,99778.03
2023-05-09T23:00:48.136Z,99776.19
2023-05-09T23:03:14.524Z,99765.06
2023-05-09T23:05:40.942Z,99773.25
2023-05-09T23:08:07.293Z,99762.47
2023-05-09T23:10:33.593Z,99762.78
2023-05-09T23:12:59.990Z,99761.06
2023-05-09T23:15:26.482Z,99758.69
2023-05-09T23:17:52.904Z,99759.59
2023-05-09T23:20:19.595Z,99759.13
2023-05-09T23:22:45.956Z,99759.47
2023-05-09T23:25:12.272Z,99753.66
2023-05-09T23:27:38.644Z,99754.13
2023-05-09T23:30:05.574Z,99752.72
2023-05-09T23:32:31.889Z,99748.84
2023-05-09T23:34:58.224Z,99748.59
2023-05-09T23:37:24.509Z,99743.00
2023-05-09T23:39:50.804Z,99743.34
2023-05-09T23:42:17.101Z,99741.38
2023-05-09T23:44:43.405Z,99734.34
2023-05-09T23:47:09.697Z,99730.63
2023-05-09T23:49:35.997Z,99738.91
2023-05-09T23:52:02.340Z,99725.56
2023-05-09T23:54:28.708Z,99727.19
2023-05-09T23:56:55.012Z,99733.44
2023-05-09T23:59:21.308Z,99729.00
